Time;durP1;ratioP1;P1;durP2;ratioP2;P2;SDS_P1;SDS_P2;PMS_P1;PMS_P2;Temp;Humidity;BMP_temperature;BMP_pressure;BME280_temperature;BME280_humidity;BME280_pressure;Samples;Min_cycle;Max_cycle;Signal;HPM_P1;HPM_P2
2022/03/01 00:00:40;;;;;;;20.65;7.97;;;;;;;;;;5105928;28;20035;-72
2022/03/01 00:03:06;;;;;;;22.67;9.38;;;;;;;;;;5105492;28;20105;-73
2022/03/01 00:05:32;;;;;;;24.15;11.38;;;;;;;;;;5105746;28;20109;-73
2022/03/01 00:07:57;;;;;;;25.05;9.55;;;;;;;;;;5092430;28;20139;-73
2022/03/01 00:10:23;;;;;;;28.90;10.82;;;;;;;;;;5102618;27;20528;-72
2022/03/01 00:12:48;;;;;;;22.92;10.07;;;;;;;;;;5103183;27;20534;-73
2022/03/01 00:15:14;;;;;;;26.60;10.40;;;;;;;;;;5102696;27;20052;-73
2022/03/01 00:17:39;;;;;;;26.35;9.75;;;;;;;;;;5103612;27;20488;-72
2022/03/01 00:20:05;;;;;;;24.92;10.68;;;;;;;;;;5100822;28;20019;-73
2022/03/01 00:22:31;;;;;;;29.02;11.45;;;;;;;;;;5105737;27;20502;-73
2022/03/01 00:24:56;;;;;;;26.77;11.68;;;;;;;;;;5102931;27;20062;-73
2022/03/01 00:27:21;;;;;;;40.60;15.02;;;;;;;;;;5106146;27;20039;-73
2022/03/01 00:29:47;;;;;;;37.15;14.20;;;;;;;;;;5104738;27;20068;-73
2022/03/01 00:32:12;;;;;;;34.95;14.02;;;;;;;;;;5104005;28;20019;-73
2022/03/01 00:34:38;;;;;;;32.42;11.90;;;;;;;;;;5104096;27;20034;-73
2022/03/01 00:37:04;;;;;;;25.92;10.98;;;;;;;;;;5101598;28;20030;-72
2022/03/01 00:39:29;;;;;;;30.45;11.10;;;;;;;;;;5102488;28;20028;-73
2022/03/01 00:41:55;;;;;;;26.33;9.80;;;;;;;;;;5101159;27;20127;-73
2022/03/01 00:44:20;;;;;;;28.35;11.15;;;;;;;;;;5104970;28;20081;-73
2022/03/01 00:46:46;;;;;;;30.40;11.77;;;;;;;;;;5103479;27;20424;-73
2022/03/01 00:49:11;;;;;;;32.25;12.30;;;;;;;;;;5101955;28;20493;-73
2022/03/01 00:51:37;;;;;;;31.48;11.27;;;;;;;;;;5103705;28;20052;-73
2022/03/01 00:54:02;;;;;;;26.45;10.95;;;;;;;;;;5109998;28;20469;-73
2022/03/01 00:56:27;;;;;;;26.67;11.13;;;;;;;;;;5105855;28;20028;-72
2022/03/01 00:58:53;;;;;;;22.13;8.73;;;;;;;;;;5104051;28;20039;-73
2022/03/01 01:01:18;;;;;;;21.27;9.15;;;;;;;;;;5098621;27;20070;-73
2022/03/01 01:03:44;;;;;;;26.13;9.00;;;;;;;;;;5101975;27;20050;-73
2022/03/01 01:06:09;;;;;;;20.20;8.52;;;;;;;;;;5098213;27;20031;-73
2022/03/01 01:08:35;;;;;;;20.52;8.98;;;;;;;;;;5099686;28;20108;-73
2022/03/01 01:11:01;;;;;;;20.02;8.90;;;;;;;;;;5101830;28;20020;-73
2022/03/01 01:13:26;;;;;;;20.23;8.95;;;;;;;;;;5102548;27;20048;-73
2022/03/01 01:15:51;;;;;;;17.25;8.20;;;;;;;;;;5101656;28;20031;-72
2022/03/01 01:18:17;;;;;;;21.13;8.30;;;;;;;;;;5105324;27;20032;-72
2022/03/01 01:20:42;;;;;;;17.63;7.78;;;;;;;;;;5101469;28;20031;-73
2022/03/01 01:23:08;;;;;;;21.65;7.85;;;;;;;;;;5106118;28;20031;-73
2022/03/01 01:25:34;;;;;;;28.58;10.05;;;;;;;;;;5103431;27;20043;-73
2022/03/01 01:28:00;;;;;;;28.38;11.05;;;;;;;;;;5101495;27;20036;-73
2022/03/01 01:30:28;;;;;;;26.02;10.70;;;;;;;;;;5104000;28;20079;-73
2022/03/01 01:32:54;;;;;;;31.58;11.35;;;;;;;;;;5100602;28;20127;-73
2022/03/01 01:35:22;;;;;;;34.60;12.35;;;;;;;;;;5103559;28;20843;-73
2022/03/01 01:37:48;;;;;;;35.85;12.73;;;;;;;;;;5103037;27;20466;-72
2022/03/01 01:40:17;;;;;;;32.75;12.85;;;;;;;;;;5106239;27;20093;-73
2022/03/01 01:42:43;;;;;;;34.70;12.82;;;;;;;;;;5100556;27;20039;-73
2022/03/01 01:45:10;;;;;;;35.33;13.23;;;;;;;;;;5105879;28;20401;-73
2022/03/01 01:47:35;;;;;;;34.53;13.18;;;;;;;;;;5102641;27;20515;-73
2022/03/01 01:50:01;;;;;;;35.88;13.27;;;;;;;;;;5109419;28;20106;-73
2022/03/01 01:52:27;;;;;;;38.05;13.57;;;;;;;;;;5107816;27;20046;-72
2022/03/01 01:54:53;;;;;;;37.28;13.20;;;;;;;;;;5105759;27;20320;-73
2022/03/01 01:57:22;;;;;;;47.47;14.35;;;;;;;;;;5104988;27;20047;-73
2022/03/01 01:59:49;;;;;;;34.25;11.90;;;;;;;;;;5104670;27;20039;-73
2022/03/01 02:02:19;;;;;;;35.30;12.90;;;;;;;;;;5103400;28;20100;-73
2022/03/01 02:04:45;;;;;;;37.58;12.88;;;;;;;;;;5110382;27;20028;-73
2022/03/01 02:07:12;;;;;;;34.92;12.48;;;;;;;;;;5109412;28;20089;-73
2022/03/01 02:09:38;;;;;;;30.95;11.57;;;;;;;;;;5104048;28;20036;-73
2022/03/01 02:12:04;;;;;;;28.70;11.07;;;;;;;;;;5108591;27;20038;-73
2022/03/01 02:14:31;;;;;;;30.85;11.48;;;;;;;;;;5112108;27;20071;-73
2022/03/01 02:17:03;;;;;;;29.52;11.65;;;;;;;;;;5109817;27;20575;-73
2022/03/01 02:19:29;;;;;;;33.40;12.32;;;;;;;;;;5106644;27;20057;-73
2022/03/01 02:21:56;;;;;;;34.35;13.20;;;;;;;;;;5103065;27;20039;-73
2022/03/01 02:24:23;;;;;;;23.50;9.70;;;;;;;;;;5104714;27;20151;-73
2022/03/01 02:26:48;;;;;;;23.70;10.57;;;;;;;;;;5106917;27;20026;-71
2022/03/01 02:29:14;;;;;;;23.38;9.38;;;;;;;;;;5110042;27;20566;-73
2022/03/01 02:31:40;;;;;;;27.02;9.93;;;;;;;;;;5108111;28;20036;-73
2022/03/01 02:34:05;;;;;;;31.02;11.95;;;;;;;;;;5104159;28;20389;-72
2022/03/01 02:36:31;;;;;;;32.00;12.18;;;;;;;;;;5108846;27;20054;-73
2022/03/01 02:38:57;;;;;;;32.38;12.07;;;;;;;;;;5103233;27;20040;-73
2022/03/01 02:41:24;;;;;;;34.15;11.85;;;;;;;;;;5106277;27;20031;-73
2022/03/01 02:43:50;;;;;;;30.05;11.32;;;;;;;;;;5108763;27;20537;-73
2022/03/01 02:46:15;;;;;;;29.58;12.20;;;;;;;;;;5109183;27;20031;-72
2022/03/01 02:48:40;;;;;;;35.50;12.65;;;;;;;;;;5107566;27;20039;-72
2022/03/01 02:51:06;;;;;;;44.88;15.57;;;;;;;;;;5107281;27;20045;-73
2022/03/01 02:53:31;;;;;;;37.10;13.77;;;;;;;;;;5108922;28;20023;-73
2022/03/01 02:55:56;;;;;;;42.60;13.95;;;;;;;;;;5106770;28;20027;-73
2022/03/01 02:58:21;;;;;;;37.58;15.00;;;;;;;;;;5107096;27;20055;-72
2022/03/01 03:00:48;;;;;;;50.15;15.93;;;;;;;;;;5104281;27;20131;-73
2022/03/01 03:03:14;;;;;;;47.67;16.60;;;;;;;;;;5107713;27;20114;-72
2022/03/01 03:05:39;;;;;;;45.53;16.38;;;;;;;;;;5105206;27;20165;-72
2022/03/01 03:08:05;;;;;;;46.10;16.75;;;;;;;;;;5104307;28;20106;-72
2022/03/01 03:10:33;;;;;;;38.05;13.82;;;;;;;;;;5106049;27;20039;-73
2022/03/01 03:13:02;;;;;;;32.60;14.52;;;;;;;;;;5108236;27;20032;-73
2022/03/01 03:15:27;;;;;;;40.58;14.35;;;;;;;;;;5106661;27;20042;-73
2022/03/01 03:17:53;;;;;;;33.75;13.88;;;;;;;;;;5105731;27;20020;-73
2022/03/01 03:20:19;;;;;;;40.85;14.90;;;;;;;;;;5104974;28;20024;-73
2022/03/01 03:22:45;;;;;;;35.95;14.48;;;;;;;;;;5104704;27;20629;-73
2022/03/01 03:25:11;;;;;;;38.13;14.55;;;;;;;;;;5104919;27;20108;-73
2022/03/01 03:27:37;;;;;;;44.15;15.80;;;;;;;;;;5105112;27;20035;-73
2022/03/01 03:30:04;;;;;;;37.90;14.20;;;;;;;;;;5102073;27;20064;-72
2022/03/01 03:32:29;;;;;;;36.03;13.65;;;;;;;;;;5105506;27;20396;-73
2022/03/01 03:34:55;;;;;;;40.90;13.52;;;;;;;;;;5106329;27;20032;-73
2022/03/01 03:37:20;;;;;;;38.90;14.38;;;;;;;;;;5106934;27;20062;-73
2022/03/01 03:39:45;;;;;;;36.22;13.25;;;;;;;;;;5107236;27;20039;-73
2022/03/01 03:42:11;;;;;;;36.72;14.18;;;;;;;;;;5102984;27;20031;-73
2022/03/01 03:44:38;;;;;;;53.13;15.52;;;;;;;;;;5105914;27;20099;-73
2022/03/01 03:47:04;;;;;;;38.10;13.45;;;;;;;;;;5101011;28;20047;-73
2022/03/01 03:49:29;;;;;;;42.50;13.85;;;;;;;;;;5103229;28;20040;-73
2022/03/01 03:51:55;;;;;;;27.13;11.48;;;;;;;;;;5105883;27;20117;-73
2022/03/01 03:54:20;;;;;;;30.45;12.18;;;;;;;;;;5106115;28;20467;-73
2022/03/01 03:56:46;;;;;;;38.55;13.20;;;;;;;;;;5107162;27;20517;-73
2022/03/01 03:59:11;;;;;;;30.67;11.63;;;;;;;;;;5107321;27;20400;-72
2022/03/01 04:01:36;;;;;;;26.45;10.55;;;;;;;;;;5101447;27;20032;-72
2022/03/01 04:04:02;;;;;;;37.33;13.20;;;;;;;;;;5099255;27;20400;-72
2022/03/01 04:06:28;;;;;;;33.85;11.75;;;;;;;;;;5102825;27;20687;-73
2022/03/01 04:08:53;;;;;;;32.03;10.48;;;;;;;;;;5102579;27;20598;-72
2022/03/01 04:11:18;;;;;;;30.35;11.38;;;;;;;;;;5103102;27;20385;-73
2022/03/01 04:13:44;;;;;;;25.55;8.82;;;;;;;;;;5106773;27;20077;-73
2022/03/01 04:16:09;;;;;;;27.05;9.50;;;;;;;;;;5105859;27;20047;-73
2022/03/01 04:18:35;;;;;;;22.38;8.23;;;;;;;;;;5103283;28;20035;-72
2022/03/01 04:21:00;;;;;;;22.88;9.13;;;;;;;;;;5106868;27;20054;-73
2022/03/01 04:23:27;;;;;;;21.67;8.00;;;;;;;;;;5105577;28;20058;-73
2022/03/01 04:25:53;;;;;;;20.42;8.10;;;;;;;;;;5101949;27;20478;-73
2022/03/01 04:28:18;;;;;;;18.55;7.35;;;;;;;;;;5100395;28;20031;-73
2022/03/01 04:30:43;;;;;;;18.77;8.20;;;;;;;;;;5103692;28;20053;-73
2022/03/01 04:33:09;;;;;;;18.23;7.82;;;;;;;;;;5111573;27;20030;-73
2022/03/01 04:35:34;;;;;;;16.77;7.70;;;;;;;;;;5105526;28;20110;-73
2022/03/01 04:37:59;;;;;;;16.73;7.20;;;;;;;;;;5107204;27;20056;-73
2022/03/01 04:40:25;;;;;;;17.38;7.65;;;;;;;;;;5107008;27;20059;-73
2022/03/01 04:42:50;;;;;;;16.33;7.20;;;;;;;;;;5106283;27;20031;-72
2022/03/01 04:45:16;;;;;;;19.77;7.97;;;;;;;;;;5108449;27;20544;-73
2022/03/01 04:47:42;;;;;;;25.27;8.43;;;;;;;;;;5106923;27;20023;-73
2022/03/01 04:50:08;;;;;;;14.80;7.65;;;;;;;;;;5112776;28;20080;-72
2022/03/01 04:52:34;;;;;;;14.98;7.35;;;;;;;;;;5103403;28;20031;-73
2022/03/01 04:54:59;;;;;;;16.23;7.60;;;;;;;;;;5103563;28;20038;-73
2022/03/01 04:57:24;;;;;;;19.48;7.68;;;;;;;;;;5104138;27;20040;-73
2022/03/01 04:59:50;;;;;;;16.38;6.65;;;;;;;;;;5105436;27;20511;-73
2022/03/01 05:02:15;;;;;;;16.08;7.13;;;;;;;;;;5106554;28;20401;-73
2022/03/01 05:04:40;;;;;;;16.08;7.15;;;;;;;;;;5110736;28;20071;-73
2022/03/01 05:07:06;;;;;;;16.17;7.10;;;;;;;;;;5099378;27;20040;-73
2022/03/01 05:09:31;;;;;;;17.50;7.18;;;;;;;;;;5098388;28;20042;-73
2022/03/01 05:11:56;;;;;;;18.58;7.22;;;;;;;;;;5105368;27;20030;-72
2022/03/01 05:14:22;;;;;;;15.90;7.15;;;;;;;;;;5106681;27;20051;-73
2022/03/01 05:16:47;;;;;;;18.02;7.13;;;;;;;;;;5116480;27;20031;-72
2022/03/01 05:19:13;;;;;;;15.57;6.72;;;;;;;;;;5106928;27;20034;-73
2022/03/01 05:21:38;;;;;;;16.92;7.57;;;;;;;;;;5101073;28;20031;-73
2022/03/01 05:24:05;;;;;;;16.75;6.78;;;;;;;;;;5103979;28;20450;-73
2022/03/01 05:26:31;;;;;;;17.50;7.32;;;;;;;;;;5106290;27;20480;-73
2022/03/01 05:28:56;;;;;;;17.65;7.85;;;;;;;;;;5109627;27;20583;-72
2022/03/01 05:31:22;;;;;;;19.02;7.80;;;;;;;;;;5105971;27;20046;-73
2022/03/01 05:33:47;;;;;;;21.25;7.95;;;;;;;;;;5108709;27;20744;-73
2022/03/01 05:36:16;;;;;;;17.10;7.57;;;;;;;;;;5122245;27;20027;-73
2022/03/01 05:38:42;;;;;;;16.52;8.15;;;;;;;;;;5112006;27;20164;-73
2022/03/01 05:41:08;;;;;;;19.02;7.88;;;;;;;;;;5109486;27;20055;-72
2022/03/01 05:43:35;;;;;;;16.77;7.35;;;;;;;;;;5108544;27;20551;-73
2022/03/01 05:46:00;;;;;;;19.48;7.95;;;;;;;;;;5105700;27;20120;-73
2022/03/01 05:48:26;;;;;;;21.65;7.63;;;;;;;;;;5103800;28;20512;-72
2022/03/01 05:50:52;;;;;;;18.65;8.10;;;;;;;;;;5110435;27;20031;-73
2022/03/01 05:53:18;;;;;;;16.08;8.00;;;;;;;;;;5110148;27;20081;-73
2022/03/01 05:55:43;;;;;;;20.65;8.07;;;;;;;;;;5109385;27;20044;-73
2022/03/01 05:58:09;;;;;;;18.88;8.05;;;;;;;;;;5109121;27;20513;-73
2022/03/01 06:00:34;;;;;;;19.30;8.20;;;;;;;;;;5107959;27;20503;-73
2022/03/01 06:03:00;;;;;;;21.52;8.18;;;;;;;;;;5108809;27;20493;-72
2022/03/01 06:05:26;;;;;;;21.67;8.98;;;;;;;;;;5104209;27;20078;-73
2022/03/01 06:07:52;;;;;;;19.63;7.97;;;;;;;;;;5113102;27;20500;-73
2022/03/01 06:10:17;;;;;;;24.35;9.05;;;;;;;;;;5105807;27;20067;-73
2022/03/01 06:12:42;;;;;;;20.02;8.48;;;;;;;;;;5106098;27;20046;-73
2022/03/01 06:15:09;;;;;;;19.20;8.23;;;;;;;;;;5109784;27;20031;-73
2022/03/01 06:17:35;;;;;;;21.88;8.90;;;;;;;;;;5113320;27;20026;-73
2022/03/01 06:20:01;;;;;;;17.38;7.40;;;;;;;;;;5102842;27;20131;-72
2022/03/01 06:22:27;;;;;;;18.08;7.88;;;;;;;;;;5111996;27;20039;-73
2022/03/01 06:24:55;;;;;;;19.50;7.20;;;;;;;;;;5108987;27;20039;-72
2022/03/01 06:27:21;;;;;;;21.73;9.07;;;;;;;;;;5105600;27;20085;-73
2022/03/01 06:29:46;;;;;;;20.00;8.05;;;;;;;;;;5114903;27;20023;-73
2022/03/01 06:32:12;;;;;;;19.17;8.52;;;;;;;;;;5108201;27;20031;-73
2022/03/01 06:34:38;;;;;;;20.58;7.90;;;;;;;;;;5100692;27;20039;-75
2022/03/01 06:37:03;;;;;;;20.65;8.60;;;;;;;;;;5096200;27;20115;-73
2022/03/01 06:39:28;;;;;;;27.10;8.60;;;;;;;;;;5109209;27;20039;-71
2022/03/01 06:41:54;;;;;;;21.90;9.25;;;;;;;;;;5100596;27;20409;-72
2022/03/01 06:44:19;;;;;;;26.95;9.38;;;;;;;;;;5105412;27;20028;-72
2022/03/01 06:46:44;;;;;;;23.40;9.75;;;;;;;;;;5107462;27;20035;-72
2022/03/01 06:49:10;;;;;;;17.52;6.82;;;;;;;;;;5109041;27;20630;-72
2022/03/01 06:51:35;;;;;;;17.67;7.40;;;;;;;;;;5104952;27;20093;-72
2022/03/01 06:54:01;;;;;;;19.27;7.68;;;;;;;;;;5103637;27;20496;-72
2022/03/01 06:56:27;;;;;;;15.63;7.28;;;;;;;;;;5100937;28;20027;-72
2022/03/01 06:58:53;;;;;;;17.90;7.57;;;;;;;;;;5104364;27;20043;-72
2022/03/01 07:01:19;;;;;;;18.73;7.78;;;;;;;;;;5107012;27;20047;-73
2022/03/01 07:03:44;;;;;;;21.05;8.18;;;;;;;;;;5108787;27;20124;-73
2022/03/01 07:06:10;;;;;;;23.88;8.50;;;;;;;;;;5107259;28;20032;-72
2022/03/01 07:08:36;;;;;;;20.92;7.72;;;;;;;;;;5108788;28;20033;-72
2022/03/01 07:11:01;;;;;;;20.45;8.15;;;;;;;;;;5108430;27;20114;-72
2022/03/01 07:13:26;;;;;;;20.25;8.73;;;;;;;;;;5105740;27;20435;-72
2022/03/01 07:15:52;;;;;;;19.70;8.07;;;;;;;;;;5094972;27;21450;-72
2022/03/01 07:18:17;;;;;;;15.70;7.10;;;;;;;;;;5100413;27;20047;-72
2022/03/01 07:20:45;;;;;;;18.00;7.90;;;;;;;;;;5107989;27;20023;-72
2022/03/01 07:23:11;;;;;;;22.92;8.05;;;;;;;;;;5107313;28;20085;-72
2022/03/01 07:25:37;;;;;;;18.63;7.95;;;;;;;;;;5098301;27;20452;-72
2022/03/01 07:28:03;;;;;;;19.27;7.50;;;;;;;;;;5099894;27;20050;-71
2022/03/01 07:30:29;;;;;;;26.42;8.40;;;;;;;;;;5107900;27;20043;-71
2022/03/01 07:32:59;;;;;;;19.30;8.27;;;;;;;;;;5107937;27;20026;-70
2022/03/01 07:35:25;;;;;;;20.67;7.55;;;;;;;;;;5105672;27;20085;-70
2022/03/01 07:37:52;;;;;;;22.33;8.52;;;;;;;;;;5094813;27;20095;-72
2022/03/01 07:40:19;;;;;;;18.23;8.48;;;;;;;;;;5097075;28;20044;-72
2022/03/01 07:42:44;;;;;;;22.30;8.63;;;;;;;;;;5104201;27;20404;-72
2022/03/01 07:45:10;;;;;;;23.65;8.85;;;;;;;;;;5103962;27;20032;-72
2022/03/01 07:47:36;;;;;;;23.42;8.93;;;;;;;;;;5105580;28;20031;-73
2022/03/01 07:50:02;;;;;;;20.52;9.27;;;;;;;;;;5101450;27;20031;-73
2022/03/01 07:52:28;;;;;;;21.30;8.25;;;;;;;;;;5107826;27;20043;-73
2022/03/01 07:54:53;;;;;;;22.10;8.93;;;;;;;;;;5101006;27;20069;-72
2022/03/01 07:57:19;;;;;;;20.48;9.18;;;;;;;;;;5103701;28;20134;-73
2022/03/01 07:59:45;;;;;;;20.75;8.40;;;;;;;;;;5105056;27;20484;-73
2022/03/01 08:02:10;;;;;;;17.15;8.02;;;;;;;;;;5096382;27;20494;-66
2022/03/01 08:04:37;;;;;;;18.25;7.82;;;;;;;;;;5099024;28;20055;-66
2022/03/01 08:07:02;;;;;;;17.30;8.48;;;;;;;;;;5103034;27;20055;-66
2022/03/01 08:09:28;;;;;;;18.48;7.55;;;;;;;;;;5103655;27;20070;-66
2022/03/01 08:11:54;;;;;;;23.25;9.30;;;;;;;;;;5104646;27;20022;-67
2022/03/01 08:14:19;;;;;;;20.55;8.52;;;;;;;;;;5102310;28;20026;-67
2022/03/01 08:16:44;;;;;;;17.42;7.85;;;;;;;;;;5098478;27;20028;-67
2022/03/01 08:19:09;;;;;;;11.13;5.40;;;;;;;;;;5102636;27;20027;-66
2022/03/01 08:21:35;;;;;;;19.27;7.95;;;;;;;;;;5102798;27;20055;-68
2022/03/01 08:24:02;;;;;;;23.45;8.25;;;;;;;;;;5100427;27;20027;-67
2022/03/01 08:26:27;;;;;;;16.02;7.72;;;;;;;;;;5103565;28;20119;-67
2022/03/01 08:28:53;;;;;;;16.17;8.05;;;;;;;;;;5095050;28;20674;-68
2022/03/01 08:31:18;;;;;;;17.60;8.02;;;;;;;;;;5104572;27;20035;-68
2022/03/01 08:33:44;;;;;;;13.43;5.20;;;;;;;;;;5103345;27;20031;-67
2022/03/01 08:36:12;;;;;;;15.55;7.25;;;;;;;;;;5105906;27;20032;-73
2022/03/01 08:38:37;;;;;;;18.90;8.25;;;;;;;;;;5104755;28;20020;-72
2022/03/01 08:41:03;;;;;;;22.08;9.75;;;;;;;;;;5098967;28;20409;-74
2022/03/01 08:43:28;;;;;;;19.73;8.82;;;;;;;;;;5103720;28;20054;-70
2022/03/01 08:45:54;;;;;;;20.58;8.40;;;;;;;;;;5109503;27;20039;-70
2022/03/01 08:48:19;;;;;;;18.38;8.23;;;;;;;;;;5104527;27;20523;-75
2022/03/01 08:50:44;;;;;;;22.92;9.63;;;;;;;;;;5102908;27;20408;-75
2022/03/01 08:53:10;;;;;;;20.05;9.02;;;;;;;;;;5105944;28;20095;-70
2022/03/01 08:55:36;;;;;;;21.42;8.95;;;;;;;;;;5106735;27;20047;-69
2022/03/01 08:58:01;;;;;;;21.70;8.68;;;;;;;;;;5106881;27;20039;-69
2022/03/01 09:00:27;;;;;;;18.48;8.43;;;;;;;;;;5108832;27;20046;-69
2022/03/01 09:02:53;;;;;;;22.13;9.13;;;;;;;;;;5103381;27;20035;-69
2022/03/01 09:05:18;;;;;;;16.55;7.65;;;;;;;;;;5108266;27;20016;-69
2022/03/01 09:07:44;;;;;;;21.67;9.30;;;;;;;;;;5106916;28;20771;-68
2022/03/01 09:10:10;;;;;;;23.70;9.75;;;;;;;;;;5103813;27;20035;-69
2022/03/01 09:12:36;;;;;;;21.42;9.00;;;;;;;;;;5105046;27;20031;-69
2022/03/01 09:15:04;;;;;;;27.02;9.52;;;;;;;;;;5103581;27;20034;-71
2022/03/01 09:17:32;;;;;;;19.13;7.40;;;;;;;;;;5106146;27;21042;-72
2022/03/01 09:19:58;;;;;;;25.30;10.88;;;;;;;;;;5103753;27;20388;-72
2022/03/01 09:22:23;;;;;;;24.25;9.00;;;;;;;;;;5102210;27;20042;-71
2022/03/01 09:24:48;;;;;;;22.38;9.50;;;;;;;;;;5107391;27;20114;-71
2022/03/01 09:27:14;;;;;;;24.02;9.13;;;;;;;;;;5104774;27;20575;-74
2022/03/01 09:29:40;;;;;;;20.95;9.63;;;;;;;;;;5109343;27;20450;-71
2022/03/01 09:32:05;;;;;;;24.33;9.73;;;;;;;;;;5109372;27;20511;-76
2022/03/01 09:34:31;;;;;;;27.00;10.40;;;;;;;;;;5113991;27;20060;-72
2022/03/01 09:36:56;;;;;;;24.42;9.90;;;;;;;;;;5104225;28;20035;-70
2022/03/01 09:39:22;;;;;;;23.88;10.15;;;;;;;;;;5101761;27;20036;-73
2022/03/01 09:41:50;;;;;;;21.85;10.40;;;;;;;;;;5102282;27;20115;-72
2022/03/01 09:44:16;;;;;;;22.83;10.15;;;;;;;;;;5113541;27;20023;-71
2022/03/01 09:46:43;;;;;;;22.50;10.15;;;;;;;;;;5105035;27;20040;-70
2022/03/01 09:49:09;;;;;;;23.38;10.32;;;;;;;;;;5113128;27;20035;-70
2022/03/01 09:51:37;;;;;;;22.25;9.57;;;;;;;;;;5107183;27;20032;-70
2022/03/01 09:54:03;;;;;;;22.23;10.15;;;;;;;;;;5107923;27;20543;-71
2022/03/01 09:56:29;;;;;;;22.35;10.00;;;;;;;;;;5106279;27;20031;-74
2022/03/01 09:58:55;;;;;;;27.13;9.90;;;;;;;;;;5106812;27;20031;-70
2022/03/01 10:01:21;;;;;;;23.02;10.48;;;;;;;;;;5105084;27;20416;-69
2022/03/01 10:03:51;;;;;;;24.83;10.40;;;;;;;;;;5113965;27;20051;-69
2022/03/01 10:06:19;;;;;;;21.27;9.98;;;;;;;;;;5105712;27;20043;-71
2022/03/01 10:08:44;;;;;;;32.20;10.40;;;;;;;;;;5106064;27;20027;-73
2022/03/01 10:11:10;;;;;;;24.80;9.88;;;;;;;;;;5101864;28;20040;-72
2022/03/01 10:13:38;;;;;;;23.20;10.45;;;;;;;;;;5106239;27;20524;-72
2022/03/01 10:16:12;;;;;;;23.55;10.82;;;;;;;;;;5100048;27;20475;-74
2022/03/01 10:18:39;;;;;;;38.00;14.63;;;;;;;;;;5100752;27;20547;-69
2022/03/01 10:21:11;;;;;;;74.53;27.58;;;;;;;;;;5097401;27;20039;-70
2022/03/01 10:23:38;;;;;;;32.90;15.77;;;;;;;;;;5101497;28;20020;-70
2022/03/01 10:26:15;;;;;;;25.45;11.05;;;;;;;;;;5099719;27;20560;-70
2022/03/01 10:28:41;;;;;;;26.15;10.80;;;;;;;;;;5100117;27;20027;-71
2022/03/01 10:31:18;;;;;;;26.85;10.40;;;;;;;;;;5107643;27;20058;-70
2022/03/01 10:34:00;;;;;;;21.58;11.05;;;;;;;;;;5104404;27;20028;-72
2022/03/01 10:36:28;;;;;;;25.25;10.65;;;;;;;;;;5105609;27;20019;-71
2022/03/01 10:38:58;;;;;;;25.88;10.20;;;;;;;;;;5102261;27;20108;-71
2022/03/01 10:41:28;;;;;;;29.58;12.23;;;;;;;;;;5099917;27;20027;-72
2022/03/01 10:43:57;;;;;;;28.92;12.23;;;;;;;;;;5101774;27;20035;-73
2022/03/01 10:46:23;;;;;;;32.38;11.52;;;;;;;;;;5105687;27;20063;-72
2022/03/01 10:48:59;;;;;;;31.38;12.38;;;;;;;;;;5100319;27;20032;-73
2022/03/01 10:51:24;;;;;;;31.10;12.00;;;;;;;;;;5104512;27;20027;-74
2022/03/01 10:53:49;;;;;;;23.88;10.95;;;;;;;;;;5104271;27;20069;-71
2022/03/01 10:56:16;;;;;;;27.27;11.73;;;;;;;;;;5108428;27;20030;-71
2022/03/01 10:58:43;;;;;;;26.52;12.23;;;;;;;;;;5105153;27;20097;-70
2022/03/01 11:01:09;;;;;;;29.52;13.15;;;;;;;;;;5100732;27;20055;-70
2022/03/01 11:03:37;;;;;;;25.55;11.00;;;;;;;;;;5099620;27;20081;-71
2022/03/01 11:06:05;;;;;;;27.45;12.85;;;;;;;;;;5109963;27;20569;-71
2022/03/01 11:08:32;;;;;;;31.50;11.52;;;;;;;;;;5100909;27;20066;-72
2022/03/01 11:11:00;;;;;;;27.98;12.43;;;;;;;;;;5099232;27;20035;-72
2022/03/01 11:13:30;;;;;;;26.38;12.10;;;;;;;;;;5100678;28;20040;-71
2022/03/01 11:16:13;;;;;;;31.27;12.73;;;;;;;;;;5096567;27;20040;-71
2022/03/01 11:18:48;;;;;;;30.95;12.60;;;;;;;;;;5103572;27;20035;-70
2022/03/01 11:21:15;;;;;;;34.40;12.32;;;;;;;;;;5100943;28;20042;-71
2022/03/01 11:23:42;;;;;;;28.33;11.68;;;;;;;;;;5108359;27;20035;-69
2022/03/01 11:26:14;;;;;;;24.40;12.07;;;;;;;;;;5101421;27;20489;-70
2022/03/01 11:28:49;;;;;;;16.95;7.32;;;;;;;;;;5081680;28;20081;-71
2022/03/01 11:31:33;;;;;;;24.20;11.77;;;;;;;;;;5099813;27;20127;-72
2022/03/01 11:34:01;;;;;;;25.70;10.68;;;;;;;;;;5103651;28;20039;-69
2022/03/01 11:36:32;;;;;;;25.95;11.48;;;;;;;;;;5099244;27;20038;-72
2022/03/01 11:39:23;;;;;;;26.00;12.20;;;;;;;;;;5094797;28;20024;-71
2022/03/01 11:41:51;;;;;;;27.30;12.07;;;;;;;;;;5103256;27;20026;-71
2022/03/01 11:44:24;;;;;;;22.60;11.13;;;;;;;;;;5100838;28;20028;-71
2022/03/01 11:46:51;;;;;;;28.95;12.10;;;;;;;;;;5113157;27;20097;-71
2022/03/01 11:49:20;;;;;;;24.77;11.30;;;;;;;;;;5096356;27;20032;-71
2022/03/01 11:51:50;;;;;;;24.88;10.98;;;;;;;;;;5099435;28;20528;-71
2022/03/01 11:54:22;;;;;;;25.15;11.00;;;;;;;;;;5098549;27;20031;-71
2022/03/01 11:56:50;;;;;;;25.83;12.00;;;;;;;;;;5102931;27;20048;-71
2022/03/01 11:59:17;;;;;;;24.08;9.50;;;;;;;;;;5098927;28;20508;-71
2022/03/01 12:01:43;;;;;;;24.60;10.85;;;;;;;;;;5102411;27;20088;-71
2022/03/01 12:04:09;;;;;;;18.55;8.00;;;;;;;;;;5102012;27;20039;-71
2022/03/01 12:06:37;;;;;;;24.85;10.88;;;;;;;;;;5104795;28;20783;-71
2022/03/01 12:09:09;;;;;;;25.35;10.90;;;;;;;;;;5104151;28;20389;-70
2022/03/01 12:11:36;;;;;;;24.13;11.60;;;;;;;;;;5093072;28;20028;-73
2022/03/01 12:14:14;;;;;;;27.60;12.20;;;;;;;;;;5095807;28;20607;-71
2022/03/01 12:16:40;;;;;;;27.13;11.48;;;;;;;;;;5098632;27;20127;-72
2022/03/01 12:19:11;;;;;;;26.83;12.25;;;;;;;;;;5105384;27;20114;-70
2022/03/01 12:21:38;;;;;;;21.95;11.18;;;;;;;;;;5097333;28;20028;-72
2022/03/01 12:24:06;;;;;;;26.08;11.82;;;;;;;;;;5108921;27;20035;-72
2022/03/01 12:26:40;;;;;;;25.83;11.93;;;;;;;;;;5104138;28;20032;-72
2022/03/01 12:29:07;;;;;;;23.77;10.68;;;;;;;;;;5103344;27;20051;-71
2022/03/01 12:31:33;;;;;;;25.35;11.45;;;;;;;;;;5102336;27;20027;-70
2022/03/01 12:34:05;;;;;;;23.33;10.65;;;;;;;;;;5101050;27;20409;-71
2022/03/01 12:36:36;;;;;;;24.52;10.45;;;;;;;;;;5105027;27;20715;-71
2022/03/01 12:39:03;;;;;;;24.30;9.73;;;;;;;;;;5101579;27;20675;-71
2022/03/01 12:41:29;;;;;;;25.15;10.75;;;;;;;;;;5099830;28;20024;-71
2022/03/01 12:43:58;;;;;;;24.83;11.32;;;;;;;;;;5097984;28;20156;-71
2022/03/01 12:46:25;;;;;;;31.75;11.63;;;;;;;;;;5102431;27;20038;-71
2022/03/01 12:48:51;;;;;;;24.70;11.85;;;;;;;;;;5098971;27;20130;-71
2022/03/01 12:51:17;;;;;;;23.80;11.23;;;;;;;;;;5098314;27;20528;-72
2022/03/01 12:53:53;;;;;;;25.98;10.35;;;;;;;;;;5098212;28;20023;-74
2022/03/01 12:56:21;;;;;;;21.30;10.52;;;;;;;;;;5074426;28;20040;-76
2022/03/01 12:58:47;;;;;;;28.13;12.20;;;;;;;;;;5080797;28;20047;-74
2022/03/01 13:01:13;;;;;;;28.67;11.75;;;;;;;;;;5076230;28;20114;-74
2022/03/01 13:03:38;;;;;;;31.33;13.60;;;;;;;;;;5081821;28;20032;-72
2022/03/01 13:06:09;;;;;;;28.05;12.82;;;;;;;;;;5075990;28;20058;-72
2022/03/01 13:08:36;;;;;;;28.98;13.57;;;;;;;;;;5074684;28;20032;-73
2022/03/01 13:11:04;;;;;;;25.70;11.68;;;;;;;;;;5080687;28;20051;-70
2022/03/01 13:13:31;;;;;;;26.38;12.50;;;;;;;;;;5080241;28;20836;-70
2022/03/01 13:16:03;;;;;;;28.58;12.80;;;;;;;;;;5073289;28;20532;-73
2022/03/01 13:18:29;;;;;;;31.15;13.73;;;;;;;;;;5076719;28;20066;-74
2022/03/01 13:20:54;;;;;;;28.60;12.88;;;;;;;;;;5082835;28;20645;-73
2022/03/01 13:23:27;;;;;;;26.83;12.35;;;;;;;;;;5081481;28;20020;-71
2022/03/01 13:25:53;;;;;;;27.30;11.00;;;;;;;;;;5080682;28;20038;-71
2022/03/01 13:28:29;;;;;;;31.42;12.55;;;;;;;;;;5084775;28;20405;-73
2022/03/01 13:30:54;;;;;;;27.75;12.75;;;;;;;;;;5084165;28;20040;-77
2022/03/01 13:33:19;;;;;;;33.03;12.63;;;;;;;;;;5080147;28;20036;-77
2022/03/01 13:35:46;;;;;;;29.85;13.30;;;;;;;;;;5084192;28;20024;-72
2022/03/01 13:38:17;;;;;;;28.70;13.00;;;;;;;;;;5084579;28;20039;-71
2022/03/01 13:40:44;;;;;;;32.53;14.25;;;;;;;;;;5098463;27;20051;-73
2022/03/01 13:43:14;;;;;;;31.67;13.70;;;;;;;;;;5100337;27;20031;-75
2022/03/01 13:45:42;;;;;;;27.65;12.20;;;;;;;;;;5095278;27;20109;-73
2022/03/01 13:48:16;;;;;;;28.85;13.65;;;;;;;;;;5081948;28;20573;-73
2022/03/01 13:50:46;;;;;;;42.72;18.02;;;;;;;;;;5098447;28;20505;-74
2022/03/01 13:53:17;;;;;;;42.20;18.88;;;;;;;;;;5070317;28;20049;-77
2022/03/01 13:55:44;;;;;;;47.30;20.02;;;;;;;;;;5084620;27;20044;-74
2022/03/01 13:58:15;;;;;;;41.40;18.73;;;;;;;;;;5083730;27;20074;-80
2022/03/01 14:00:43;;;;;;;45.45;19.20;;;;;;;;;;5079514;28;20762;-73
2022/03/01 14:03:21;;;;;;;43.45;18.23;;;;;;;;;;5077916;28;20127;-74
2022/03/01 14:05:58;;;;;;;46.15;19.15;;;;;;;;;;5081182;28;20030;-78
2022/03/01 14:08:25;;;;;;;40.38;18.02;;;;;;;;;;5112902;27;20150;-74
2022/03/01 14:10:58;;;;;;;36.90;16.52;;;;;;;;;;5081538;28;20036;-74
2022/03/01 14:13:33;;;;;;;35.03;15.20;;;;;;;;;;5084166;28;20036;-72
2022/03/01 14:16:06;;;;;;;28.55;13.18;;;;;;;;;;5084758;27;20044;-73
2022/03/01 14:18:53;;;;;;;31.85;13.05;;;;;;;;;;5081969;28;20116;-74
2022/03/01 14:21:23;;;;;;;33.50;13.82;;;;;;;;;;5066358;27;20040;-74